Time;durP1;ratioP1;P1;durP2;ratioP2;P2;SDS_P1;SDS_P2;PMS_P1;PMS_P2;Temp;Humidity;BMP_temperature;BMP_pressure;BME280_temperature;BME280_humidity;BME280_pressure;Samples;Min_cycle;Max_cycle;Signal;HPM_P1;HPM_P2
2023/02/15 00:01:50;;;;;;;29.98;20.75;;;8.60;99.90;;;;;;5072120;28;20108;-89
2023/02/15 00:04:18;;;;;;;21.83;17.80;;;8.50;99.90;;;;;;5071038;28;20032;-90
2023/02/15 00:06:44;;;;;;;25.50;17.65;;;8.50;99.90;;;;;;5075183;28;20539;-90
2023/02/15 00:09:11;;;;;;;22.77;17.65;;;8.40;99.90;;;;;;5075713;28;20058;-89
2023/02/15 00:11:39;;;;;;;22.05;17.55;;;8.40;99.90;;;;;;5073857;28;20035;-89
2023/02/15 00:14:15;;;;;;;22.02;17.33;;;8.40;99.90;;;;;;5075661;28;20039;-89
2023/02/15 00:16:43;;;;;;;22.27;16.65;;;8.00;99.90;;;;;;5075575;28;20051;-90
2023/02/15 00:19:10;;;;;;;23.45;17.55;;;8.00;99.90;;;;;;5075863;28;20039;-89
2023/02/15 00:21:37;;;;;;;22.27;17.05;;;8.00;99.90;;;;;;5076259;28;20035;-90
2023/02/15 00:24:05;;;;;;;23.75;17.83;;;8.00;99.90;;;;;;5076236;28;20447;-89
2023/02/15 00:26:32;;;;;;;23.83;18.00;;;7.80;99.90;;;;;;5074183;28;20044;-89
2023/02/15 00:28:58;;;;;;;21.80;16.50;;;7.70;99.90;;;;;;5073971;28;20033;-90
2023/02/15 00:31:25;;;;;;;20.73;15.93;;;7.40;99.90;;;;;;5073913;28;20413;-89
2023/02/15 00:33:50;;;;;;;20.85;16.17;;;6.70;99.90;;;;;;5075338;28;20026;-90
2023/02/15 00:36:16;;;;;;;22.45;16.27;;;6.40;99.90;;;;;;5073774;28;20074;-89
2023/02/15 00:38:42;;;;;;;24.58;16.35;;;6.50;99.90;;;;;;5073855;28;20029;-89
2023/02/15 00:41:09;;;;;;;22.75;16.80;;;6.60;99.90;;;;;;5074546;28;20159;-90
2023/02/15 00:43:35;;;;;;;21.63;16.13;;;6.30;99.90;;;;;;5074969;28;20036;-89
2023/02/15 00:46:02;;;;;;;24.08;17.17;;;6.20;99.90;;;;;;5073776;28;20021;-90
2023/02/15 00:48:28;;;;;;;19.50;16.60;;;6.20;99.90;;;;;;5074879;28;20028;-89
2023/02/15 00:50:58;;;;;;;24.40;16.77;;;6.40;99.90;;;;;;5074729;28;20438;-90
2023/02/15 00:53:26;;;;;;;24.63;16.77;;;6.10;99.90;;;;;;5073674;28;20447;-90
2023/02/15 00:55:53;;;;;;;21.38;16.42;;;6.40;99.90;;;;;;5074432;28;20025;-89
2023/02/15 00:58:18;;;;;;;21.85;16.33;;;6.40;99.90;;;;;;5074793;28;20033;-90
2023/02/15 01:00:46;;;;;;;23.67;17.38;;;6.20;99.90;;;;;;5073472;28;20392;-90
2023/02/15 01:03:13;;;;;;;22.30;16.10;;;6.10;99.90;;;;;;5073542;28;20439;-89
2023/02/15 01:05:39;;;;;;;21.50;16.35;;;5.90;99.90;;;;;;5073413;28;20028;-90
2023/02/15 01:08:06;;;;;;;21.23;16.35;;;6.10;99.90;;;;;;5074453;28;20024;-89
2023/02/15 01:10:31;;;;;;;23.15;17.45;;;6.20;99.90;;;;;;5074201;28;20103;-89
2023/02/15 01:12:57;;;;;;;20.67;16.48;;;6.40;99.90;;;;;;5074351;28;20119;-89
2023/02/15 01:15:24;;;;;;;22.23;17.13;;;6.40;99.90;;;;;;5074553;28;20499;-89
2023/02/15 01:17:52;;;;;;;22.77;16.30;;;6.00;99.90;;;;;;5074222;28;20070;-89
2023/02/15 01:20:19;;;;;;;24.88;16.98;;;6.00;99.90;;;;;;5074278;28;20040;-89
2023/02/15 01:22:45;;;;;;;25.65;18.48;;;6.10;99.90;;;;;;5072922;28;20539;-90
2023/02/15 01:25:11;;;;;;;22.05;17.00;;;6.50;99.90;;;;;;5073110;28;20032;-90
2023/02/15 01:27:36;;;;;;;22.13;16.58;;;6.20;99.90;;;;;;5074155;28;20142;-89
2023/02/15 01:30:04;;;;;;;25.08;16.73;;;6.10;99.90;;;;;;5074644;28;20111;-89
2023/02/15 01:32:30;;;;;;;22.20;17.92;;;5.90;99.90;;;;;;5074723;28;20044;-90
2023/02/15 01:34:56;;;;;;;23.48;18.00;;;5.90;99.90;;;;;;5075140;28;20104;-89
2023/02/15 01:37:22;;;;;;;23.50;17.98;;;5.70;99.90;;;;;;5072855;28;20029;-89
2023/02/15 01:39:47;;;;;;;27.63;18.08;;;5.80;99.90;;;;;;5074083;28;20457;-90
2023/02/15 01:42:13;;;;;;;22.60;16.25;;;5.80;99.90;;;;;;5073704;28;20048;-89
2023/02/15 01:45:01;;;;;;;23.63;17.13;;;5.80;99.90;;;;;;5074052;28;20013;-89
2023/02/15 01:47:53;;;;;;;24.65;17.98;;;5.80;99.90;;;;;;5073929;28;20027;-90
2023/02/15 01:50:29;;;;;;;21.08;16.35;;;5.80;99.90;;;;;;5073811;28;20020;-90
2023/02/15 01:52:57;;;;;;;23.92;17.63;;;5.80;99.90;;;;;;5073270;28;20393;-89
2023/02/15 01:55:28;;;;;;;24.13;17.15;;;5.70;99.90;;;;;;5073669;28;20020;-90
2023/02/15 01:57:54;;;;;;;26.85;18.17;;;5.70;99.90;;;;;;5073579;28;20024;-89
2023/02/15 02:00:21;;;;;;;23.70;17.65;;;5.70;99.90;;;;;;5072085;28;20085;-89
2023/02/15 02:02:50;;;;;;;24.70;18.52;;;5.50;99.90;;;;;;5073512;28;20029;-90
2023/02/15 02:05:16;;;;;;;24.48;17.73;;;5.60;99.90;;;;;;5073571;28;20031;-89
2023/02/15 02:07:45;;;;;;;25.48;18.58;;;5.50;99.90;;;;;;5073186;28;20099;-90
2023/02/15 02:10:14;;;;;;;26.05;18.73;;;5.70;99.90;;;;;;5073228;28;20035;-89
2023/02/15 02:12:43;;;;;;;24.98;17.92;;;5.70;99.90;;;;;;5073280;28;20028;-89
2023/02/15 02:15:09;;;;;;;24.73;18.90;;;5.70;99.90;;;;;;5073360;28;20424;-89
2023/02/15 02:18:04;;;;;;;27.77;19.88;;;5.60;99.90;;;;;;5073249;28;20020;-89
2023/02/15 02:20:32;;;;;;;26.83;19.13;;;5.40;99.90;;;;;;5071048;28;20456;-89
2023/02/15 02:23:17;;;;;;;27.65;19.83;;;5.50;99.90;;;;;;5072750;28;20381;-89
2023/02/15 02:26:06;;;;;;;26.98;19.63;;;5.70;99.90;;;;;;5073240;28;20515;-89
2023/02/15 02:28:53;;;;;;;26.40;18.52;;;5.30;99.90;;;;;;5072649;28;20020;-90
2023/02/15 02:31:42;;;;;;;28.63;19.77;;;5.40;99.90;;;;;;5072864;28;20039;-89
2023/02/15 02:34:29;;;;;;;27.67;20.55;;;5.30;99.90;;;;;;5034396;28;20462;-89
2023/02/15 02:37:19;;;;;;;30.38;21.65;;;5.60;99.90;;;;;;5050679;28;20541;-89
2023/02/15 02:39:59;;;;;;;31.58;21.15;;;6.00;99.90;;;;;;5050723;28;20375;-89
2023/02/15 02:42:47;;;;;;;28.42;20.58;;;6.10;99.90;;;;;;5052123;28;20045;-90
2023/02/15 02:45:25;;;;;;;27.58;20.50;;;5.90;99.90;;;;;;5035422;28;20128;-90
2023/02/15 02:48:15;;;;;;;29.35;20.08;;;5.50;99.90;;;;;;5051317;28;20537;-89
2023/02/15 02:50:41;;;;;;;32.55;21.75;;;5.40;99.90;;;;;;5033753;28;20025;-89
2023/02/15 02:53:08;;;;;;;27.55;20.00;;;5.50;99.90;;;;;;5050739;28;20120;-89
2023/02/15 02:55:48;;;;;;;33.47;22.38;;;5.40;99.90;;;;;;5050846;28;20473;-90
2023/02/15 02:58:34;;;;;;;33.13;22.70;;;5.30;99.90;;;;;;5050904;28;20040;-89
2023/02/15 03:01:10;;;;;;;28.45;20.83;;;5.60;99.90;;;;;;5050478;28;20516;-89
2023/02/15 03:03:47;;;;;;;30.10;21.70;;;5.30;99.90;;;;;;5050679;28;20059;-89
2023/02/15 03:06:28;;;;;;;29.30;21.63;;;5.20;99.90;;;;;;5050465;28;20496;-89
2023/02/15 03:09:03;;;;;;;29.25;21.73;;;5.30;99.90;;;;;;5050537;28;20115;-90
2023/02/15 03:11:29;;;;;;;30.60;21.80;;;5.30;99.90;;;;;;5043531;28;20158;-90
2023/02/15 03:13:55;;;;;;;30.35;21.00;;;5.30;99.90;;;;;;5052687;28;20046;-90
2023/02/15 03:16:27;;;;;;;31.10;22.08;;;5.30;99.90;;;;;;5052795;28;20021;-90
2023/02/15 03:19:18;;;;;;;34.58;23.70;;;5.10;99.90;;;;;;5052236;28;20392;-90
2023/02/15 03:21:57;;;;;;;31.88;24.40;;;5.30;99.90;;;;;;5052088;28;20051;-90
2023/02/15 03:24:28;;;;;;;32.25;24.55;;;5.60;99.90;;;;;;5052704;28;20056;-90
2023/02/15 03:26:56;;;;;;;33.15;25.25;;;5.70;99.90;;;;;;5052345;28;20028;-89
2023/02/15 03:29:26;;;;;;;34.58;26.10;;;5.80;99.90;;;;;;5052645;28;20021;-90
2023/02/15 03:31:58;;;;;;;34.58;25.83;;;5.90;99.90;;;;;;5059630;28;20029;-89
2023/02/15 03:34:23;;;;;;;37.67;25.45;;;6.00;99.90;;;;;;5072196;28;20234;-89
2023/02/15 03:36:58;;;;;;;37.45;25.50;;;5.80;99.90;;;;;;5072482;28;20136;-89
2023/02/15 03:39:29;;;;;;;32.45;24.33;;;5.80;99.90;;;;;;5072523;28;20317;-89
2023/02/15 03:42:00;;;;;;;31.83;23.65;;;5.80;99.90;;;;;;5075880;28;20508;-90
2023/02/15 03:44:31;;;;;;;32.90;23.95;;;5.60;99.90;;;;;;5076295;28;20025;-90
2023/02/15 03:47:05;;;;;;;33.78;24.58;;;5.80;99.90;;;;;;5076108;28;20028;-90
2023/02/15 03:49:55;;;;;;;33.00;25.08;;;5.90;99.90;;;;;;5075723;28;20016;-89
2023/02/15 03:52:23;;;;;;;33.05;24.33;;;6.00;99.90;;;;;;5077052;28;20028;-89
2023/02/15 03:54:49;;;;;;;31.95;23.60;;;6.20;99.90;;;;;;5077601;28;20012;-90
2023/02/15 04:03:10;;;;;;;35.80;25.25;;;6.00;99.90;;;;;;5075847;28;20142;-90
2023/02/15 04:05:36;;;;;;;33.25;24.73;;;5.90;99.90;;;;;;5075791;28;20024;-90
2023/02/15 04:08:02;;;;;;;35.13;24.73;;;5.70;99.90;;;;;;5075946;28;20044;-89
2023/02/15 04:13:12;;;;;;;31.48;23.88;;;5.50;99.90;;;;;;5075759;28;20043;-89
2023/02/15 04:18:27;;;;;;;32.58;24.83;;;5.40;99.90;;;;;;5075191;28;20551;-90
2023/02/15 04:26:21;;;;;;;33.45;24.98;;;5.60;99.90;;;;;;5075702;28;20402;-90
2023/02/15 04:28:47;;;;;;;34.63;25.30;;;5.80;99.90;;;;;;5075512;28;20024;-90
2023/02/15 04:31:12;;;;;;;34.83;25.38;;;5.60;99.90;;;;;;5075154;28;20024;-89
2023/02/15 04:33:38;;;;;;;34.08;25.27;;;5.70;99.90;;;;;;5074150;28;20136;-89
2023/02/15 04:36:04;;;;;;;34.33;25.98;;;5.60;99.90;;;;;;5075353;28;20107;-89
2023/02/15 04:38:30;;;;;;;35.95;25.55;;;5.50;99.90;;;;;;5075198;28;20028;-90
2023/02/15 04:40:56;;;;;;;38.40;26.15;;;5.60;99.90;;;;;;5073413;28;20507;-89
2023/02/15 04:43:21;;;;;;;36.67;25.38;;;5.60;99.90;;;;;;5075251;28;20107;-90
2023/02/15 04:45:50;;;;;;;37.92;26.73;;;5.70;99.90;;;;;;5073802;28;20082;-90
2023/02/15 04:48:17;;;;;;;36.53;26.50;;;5.90;99.90;;;;;;5074868;28;20025;-90
2023/02/15 04:50:44;;;;;;;37.15;26.70;;;5.60;99.90;;;;;;5074771;28;20020;-89
2023/02/15 04:53:10;;;;;;;35.90;26.10;;;5.60;99.90;;;;;;5073886;28;20416;-90
2023/02/15 04:55:35;;;;;;;36.58;26.70;;;5.70;99.90;;;;;;5073800;28;20020;-90
2023/02/15 04:58:01;;;;;;;36.05;25.25;;;5.60;99.90;;;;;;5074756;28;20040;-89
2023/02/15 05:00:27;;;;;;;34.72;24.92;;;5.60;99.90;;;;;;5074498;28;20025;-90
2023/02/15 05:02:53;;;;;;;35.97;26.02;;;5.50;99.90;;;;;;5076369;28;20020;-90
2023/02/15 05:05:19;;;;;;;34.65;25.65;;;5.60;99.90;;;;;;5076218;28;20031;-89
2023/02/15 05:07:44;;;;;;;34.15;25.73;;;5.80;99.90;;;;;;5075692;28;20032;-90
2023/02/15 05:10:10;;;;;;;35.38;25.90;;;5.60;99.90;;;;;;5073556;28;20107;-90
2023/02/15 05:12:36;;;;;;;36.17;26.30;;;5.70;99.90;;;;;;5073280;28;20040;-90
2023/02/15 05:15:01;;;;;;;36.90;26.45;;;5.70;99.90;;;;;;5074320;28;20048;-89
2023/02/15 05:17:27;;;;;;;39.65;27.38;;;5.70;99.90;;;;;;5073215;28;20033;-89
2023/02/15 05:19:53;;;;;;;37.15;26.13;;;5.50;99.90;;;;;;5074447;28;20021;-90
2023/02/15 05:22:18;;;;;;;37.50;26.05;;;5.50;99.90;;;;;;5074220;28;20028;-90
2023/02/15 05:30:12;;;;;;;36.13;25.88;;;5.50;99.90;;;;;;5073988;28;20035;-90
2023/02/15 05:32:38;;;;;;;36.30;26.10;;;5.50;99.90;;;;;;5073962;28;20050;-90
2023/02/15 05:35:05;;;;;;;35.00;26.00;;;5.50;99.90;;;;;;5074185;28;20028;-90
2023/02/15 05:37:31;;;;;;;35.25;26.35;;;5.50;99.90;;;;;;5073871;28;20420;-89
2023/02/15 05:39:57;;;;;;;35.97;26.52;;;5.50;99.90;;;;;;5073951;28;20016;-90
2023/02/15 05:42:22;;;;;;;36.30;26.10;;;5.50;99.90;;;;;;5074071;28;20116;-90
2023/02/15 05:44:48;;;;;;;35.83;26.85;;;5.40;99.90;;;;;;5072407;28;20017;-90
2023/02/15 05:47:13;;;;;;;36.28;25.65;;;5.30;99.90;;;;;;5074275;28;20024;-91
2023/02/15 05:49:39;;;;;;;35.85;26.27;;;5.30;99.90;;;;;;5072548;28;20465;-89
2023/02/15 05:52:05;;;;;;;37.17;26.90;;;5.40;99.90;;;;;;5073791;28;20112;-90
2023/02/15 05:54:30;;;;;;;34.25;26.55;;;5.30;99.90;;;;;;5073784;28;20094;-90
2023/02/15 05:56:56;;;;;;;35.95;26.45;;;5.20;99.90;;;;;;5073868;28;20362;-89
2023/02/15 05:59:22;;;;;;;35.28;26.55;;;5.30;99.90;;;;;;5073455;28;20115;-90
2023/02/15 06:01:48;;;;;;;38.15;26.55;;;5.50;99.90;;;;;;5072507;28;20041;-90
2023/02/15 06:04:13;;;;;;;35.13;25.45;;;5.30;99.90;;;;;;5071724;28;20024;-90
2023/02/15 06:06:39;;;;;;;38.45;28.15;;;5.40;99.90;;;;;;5073385;28;20028;-90
2023/02/15 06:09:04;;;;;;;42.80;28.95;;;5.50;99.90;;;;;;5073641;28;20517;-90
2023/02/15 06:11:30;;;;;;;37.70;27.70;;;5.20;99.90;;;;;;5073531;28;20467;-90
2023/02/15 06:13:56;;;;;;;38.38;27.83;;;5.50;99.90;;;;;;5074780;28;20029;-90
2023/02/15 06:16:22;;;;;;;35.95;25.77;;;5.40;99.90;;;;;;5075337;28;20024;-90
2023/02/15 06:18:47;;;;;;;37.50;25.63;;;5.50;99.90;;;;;;5074983;28;20492;-90
2023/02/15 06:21:13;;;;;;;36.25;26.67;;;5.10;99.90;;;;;;5072367;28;20127;-90
2023/02/15 06:23:39;;;;;;;38.35;26.38;;;5.20;99.90;;;;;;5072432;28;20017;-90
2023/02/15 06:26:05;;;;;;;37.90;27.38;;;5.60;99.90;;;;;;5073248;28;20025;-90
2023/02/15 06:28:31;;;;;;;36.28;25.63;;;5.50;99.90;;;;;;5073051;28;20074;-90
2023/02/15 06:30:56;;;;;;;36.55;25.77;;;5.30;99.90;;;;;;5073060;28;20413;-90
2023/02/15 06:33:22;;;;;;;35.72;26.15;;;5.40;99.90;;;;;;5072985;28;20064;-90
2023/02/15 06:35:48;;;;;;;38.58;25.85;;;5.20;99.90;;;;;;5072043;28;20393;-90
2023/02/15 06:38:14;;;;;;;36.75;27.33;;;5.00;99.90;;;;;;5073133;28;20024;-90
2023/02/15 06:40:39;;;;;;;36.65;27.08;;;5.10;99.90;;;;;;5073573;28;20123;-90
2023/02/15 06:43:05;;;;;;;35.67;25.67;;;5.50;99.90;;;;;;5072722;28;20039;-90
2023/02/15 06:45:30;;;;;;;38.42;27.38;;;5.20;99.90;;;;;;5073097;28;20035;-90
2023/02/15 06:47:56;;;;;;;38.33;26.02;;;5.30;99.90;;;;;;5073080;28;20032;-89
2023/02/15 06:50:22;;;;;;;39.58;26.77;;;5.50;99.90;;;;;;5072985;28;20023;-90
2023/02/15 06:52:47;;;;;;;37.47;26.65;;;5.50;99.90;;;;;;5073100;28;20051;-90
2023/02/15 06:55:13;;;;;;;38.88;26.92;;;5.30;99.90;;;;;;5072943;28;20507;-90
2023/02/15 06:57:38;;;;;;;35.38;26.42;;;5.20;99.90;;;;;;5072678;28;20033;-90
2023/02/15 07:00:05;;;;;;;35.10;26.17;;;5.40;99.90;;;;;;5071640;28;20078;-90
2023/02/15 07:02:31;;;;;;;38.17;27.15;;;5.40;99.90;;;;;;5072807;28;20060;-90
2023/02/15 07:04:57;;;;;;;43.65;27.25;;;5.40;99.90;;;;;;5073055;28;20024;-90
2023/02/15 07:07:22;;;;;;;40.42;27.80;;;5.50;99.90;;;;;;5072896;28;20108;-90
2023/02/15 07:09:48;;;;;;;36.55;26.27;;;5.40;99.90;;;;;;5072839;28;20507;-90
2023/02/15 07:14:58;;;;;;;36.17;26.35;;;5.40;99.90;;;;;;5075115;28;20119;-90
2023/02/15 07:17:28;;;;;;;38.92;26.70;;;5.40;99.90;;;;;;5077084;28;20096;-90
2023/02/15 07:19:54;;;;;;;39.17;27.48;;;5.70;99.90;;;;;;5076832;28;20078;-90
2023/02/15 07:22:19;;;;;;;35.72;25.95;;;5.60;99.90;;;;;;5076664;28;20029;-89
2023/02/15 07:24:45;;;;;;;38.58;27.67;;;5.50;99.90;;;;;;5077690;28;20116;-90
2023/02/15 07:27:11;;;;;;;37.88;26.27;;;5.50;99.90;;;;;;5076550;28;20024;-89
2023/02/15 07:29:36;;;;;;;35.70;26.88;;;5.60;99.90;;;;;;5077511;28;20078;-90
2023/02/15 07:32:02;;;;;;;38.95;26.92;;;5.70;99.90;;;;;;5076403;28;20025;-90
2023/02/15 07:34:27;;;;;;;37.60;25.75;;;5.80;99.90;;;;;;5076491;28;20036;-90
2023/02/15 07:36:53;;;;;;;34.15;25.63;;;5.90;99.90;;;;;;5076599;28;20024;-90
2023/02/15 07:39:19;;;;;;;35.83;25.30;;;5.90;99.90;;;;;;5076374;28;20047;-90
2023/02/15 07:41:45;;;;;;;34.83;25.58;;;6.00;99.90;;;;;;5075855;28;20048;-90
2023/02/15 07:44:14;;;;;;;38.40;25.95;;;6.10;99.90;;;;;;5076251;28;20116;-89
2023/02/15 07:46:40;;;;;;;31.88;24.63;;;6.10;99.90;;;;;;5074939;28;20542;-90
2023/02/15 07:49:06;;;;;;;32.60;25.02;;;6.20;99.90;;;;;;5076218;28;20028;-90
2023/02/15 07:51:31;;;;;;;33.60;23.88;;;6.30;99.90;;;;;;5075990;28;20028;-90
2023/02/15 07:53:57;;;;;;;34.20;25.05;;;6.30;99.90;;;;;;5075951;28;20032;-90
2023/02/15 07:56:23;;;;;;;33.85;25.08;;;6.30;99.90;;;;;;5075600;28;20016;-90
2023/02/15 07:58:51;;;;;;;33.45;24.63;;;6.50;99.90;;;;;;5074839;28;20036;-90
2023/02/15 08:01:31;;;;;;;30.88;24.83;;;6.60;99.90;;;;;;5074756;28;20032;-89
2023/02/15 08:03:57;;;;;;;32.40;23.75;;;6.60;99.90;;;;;;5074733;28;20035;-90
2023/02/15 08:06:29;;;;;;;35.22;25.40;;;6.80;99.90;;;;;;5075836;28;20024;-89
2023/02/15 08:08:54;;;;;;;32.97;24.23;;;6.80;99.90;;;;;;5075670;28;20025;-90
2023/02/15 08:11:25;;;;;;;34.88;24.02;;;7.30;99.90;;;;;;5075752;28;20039;-90
2023/02/15 08:14:12;;;;;;;41.80;24.42;;;7.80;99.90;;;;;;5075606;28;20060;-89
2023/02/15 08:16:52;;;;;;;39.45;24.77;;;9.40;99.90;;;;;;5075725;28;20091;-90
2023/02/15 08:19:19;;;;;;;42.72;25.35;;;11.20;99.90;;;;;;5074354;28;20017;-90
2023/02/15 08:21:47;;;;;;;36.55;23.77;;;13.70;99.90;;;;;;5075521;28;20029;-90
2023/02/15 08:24:15;;;;;;;30.60;22.88;;;16.00;99.90;;;;;;5075245;28;20100;-90
2023/02/15 08:26:41;;;;;;;35.58;24.52;;;17.30;99.90;;;;;;5073213;28;20033;-90
2023/02/15 08:29:09;;;;;;;33.22;24.23;;;18.10;99.90;;;;;;5075487;28;20025;-90
2023/02/15 08:31:36;;;;;;;31.17;24.98;;;19.40;99.90;;;;;;5075157;28;20032;-91
2023/02/15 08:34:03;;;;;;;27.35;24.02;;;20.20;99.90;;;;;;5076386;28;20112;-90
2023/02/15 08:36:31;;;;;;;33.58;25.02;;;21.20;99.90;;;;;;5076273;28;20029;-91
2023/02/15 08:39:02;;;;;;;28.98;24.30;;;21.60;99.90;;;;;;5075796;28;20070;-90
2023/02/15 08:41:36;;;;;;;28.17;24.20;;;21.30;99.90;;;;;;5075191;28;20049;-90
2023/02/15 08:44:04;;;;;;;30.23;24.02;;;21.70;99.90;;;;;;5075174;28;20024;-90
2023/02/15 08:46:32;;;;;;;26.92;23.95;;;22.30;99.90;;;;;;5074878;28;20025;-90
2023/02/15 08:48:58;;;;;;;24.77;21.95;;;23.20;99.90;;;;;;5075004;28;20036;-90
2023/02/15 08:51:28;;;;;;;24.75;21.80;;;23.80;99.90;;;;;;5074758;28;20051;-91
2023/02/15 08:53:56;;;;;;;27.13;22.63;;;23.90;99.90;;;;;;5074388;28;20028;-91
2023/02/15 08:56:28;;;;;;;35.45;23.63;;;24.40;99.90;;;;;;5074665;28;20035;-91
2023/02/15 08:58:54;;;;;;;26.25;23.35;;;23.60;99.90;;;;;;5074613;28;20105;-90
2023/02/15 09:01:23;;;;;;;27.88;24.00;;;23.00;99.90;;;;;;5073407;28;20119;-90
2023/02/15 09:03:53;;;;;;;27.38;23.63;;;23.70;99.90;;;;;;5074305;28;20036;-89
2023/02/15 09:06:19;;;;;;;29.83;24.40;;;22.40;99.90;;;;;;5074412;28;20089;-89
2023/02/15 09:08:45;;;;;;;31.80;24.20;;;21.70;99.90;;;;;;5073109;28;20496;-88
2023/02/15 09:11:22;;;;;;;29.90;23.98;;;21.90;99.90;;;;;;5074316;28;20032;-88
2023/02/15 09:13:49;;;;;;;25.85;23.05;;;22.30;99.90;;;;;;5074467;28;20036;-88
2023/02/15 09:16:16;;;;;;;29.13;24.20;;;23.10;99.90;;;;;;5073185;28;20067;-88
2023/02/15 09:18:42;;;;;;;29.05;24.50;;;22.80;99.90;;;;;;5074666;28;20443;-89
2023/02/15 09:21:14;;;;;;;28.90;23.38;;;23.60;99.90;;;;;;5074322;28;20024;-89
2023/02/15 09:23:44;;;;;;;25.48;22.73;;;23.90;99.90;;;;;;5073087;28;20059;-89
2023/02/15 09:26:16;;;;;;;28.30;23.27;;;24.00;99.90;;;;;;5072773;28;20505;-88
2023/02/15 09:28:42;;;;;;;28.95;23.17;;;24.30;99.90;;;;;;5073669;28;20063;-89
2023/02/15 09:31:16;;;;;;;26.63;22.73;;;24.80;99.90;;;;;;5073890;28;20056;-89
2023/02/15 09:33:43;;;;;;;26.38;22.48;;;26.10;99.90;;;;;;5072655;28;20037;-89
2023/02/15 09:36:32;;;;;;;26.55;22.52;;;27.20;99.90;;;;;;5072355;28;20401;-88
2023/02/15 09:39:16;;;;;;;26.48;22.40;;;26.70;99.90;;;;;;5072521;28;20063;-89
2023/02/15 09:41:51;;;;;;;22.38;19.77;;;26.00;99.90;;;;;;5073727;28;20049;-89
2023/02/15 09:44:42;;;;;;;24.13;21.55;;;26.00;99.90;;;;;;5074668;28;20021;-89
2023/02/15 09:47:41;;;;;;;26.55;21.65;;;26.20;99.90;;;;;;5074856;28;20062;-89
2023/02/15 09:50:46;;;;;;;23.00;20.70;;;27.40;99.90;;;;;;5073970;28;20024;-89
2023/02/15 09:53:35;;;;;;;23.45;20.52;;;27.10;99.90;;;;;;5073713;28;20032;-89
2023/02/15 09:56:17;;;;;;;25.10;20.00;;;27.50;99.90;;;;;;5072116;28;20093;-89
2023/02/15 09:58:55;;;;;;;23.38;20.17;;;27.20;99.90;;;;;;5072333;28;20032;-89
2023/02/15 10:01:24;;;;;;;21.38;19.10;;;27.90;99.90;;;;;;5073567;28;20028;-89
2023/02/15 10:04:16;;;;;;;22.20;19.73;;;27.70;99.90;;;;;;5073434;28;20055;-89
2023/02/15 10:06:54;;;;;;;23.80;18.02;;;27.70;99.90;;;;;;5073063;28;20040;-89
2023/02/15 10:09:41;;;;;;;21.30;18.23;;;27.40;99.90;;;;;;5073264;28;20048;-89
2023/02/15 10:12:10;;;;;;;18.13;16.23;;;27.60;99.90;;;;;;5073213;28;20017;-88
2023/02/15 10:14:56;;;;;;;20.65;17.48;;;27.80;99.90;;;;;;5073330;28;20095;-89
2023/02/15 10:17:38;;;;;;;18.95;17.02;;;28.70;99.90;;;;;;5073341;28;20031;-89
2023/02/15 10:20:10;;;;;;;17.83;15.93;;;29.20;99.90;;;;;;5071551;28;20035;-89
2023/02/15 10:22:42;;;;;;;18.88;15.73;;;29.50;99.90;;;;;;5073122;28;20036;-89
2023/02/15 10:25:20;;;;;;;19.23;16.52;;;29.80;99.90;;;;;;5072966;28;20035;-89
2023/02/15 10:27:49;;;;;;;18.40;15.82;;;28.30;99.90;;;;;;5072963;28;20024;-89
2023/02/15 10:30:35;;;;;;;20.48;16.13;;;28.10;99.90;;;;;;5072832;28;20033;-89
2023/02/15 10:33:03;;;;;;;18.50;16.38;;;26.90;99.90;;;;;;5072716;28;20120;-89
2023/02/15 10:35:38;;;;;;;20.13;16.42;;;27.70;99.90;;;;;;5072495;28;20020;-89
2023/02/15 10:38:12;;;;;;;17.75;15.88;;;29.30;99.90;;;;;;5071830;28;20103;-90
2023/02/15 10:40:49;;;;;;;17.77;15.43;;;29.80;99.90;;;;;;5072625;28;20071;-89
2023/02/15 10:43:26;;;;;;;16.50;14.35;;;30.50;99.90;;;;;;5073044;28;20028;-89
2023/02/15 10:46:26;;;;;;;16.90;15.20;;;32.60;99.90;;;;;;5072987;28;20482;-89
2023/02/15 10:49:03;;;;;;;15.77;14.20;;;31.40;99.90;;;;;;5072179;28;20052;-89
2023/02/15 10:51:53;;;;;;;18.95;15.48;;;31.00;99.90;;;;;;5073043;28;20043;-89
2023/02/15 10:54:34;;;;;;;15.32;13.38;;;30.10;99.90;;;;;;5072648;28;20029;-89
2023/02/15 10:57:23;;;;;;;14.80;13.23;;;30.40;99.90;;;;;;5073773;28;20059;-90
2023/02/15 11:00:04;;;;;;;15.65;14.10;;;33.00;99.90;;;;;;5068627;28;20041;-89
2023/02/15 11:02:30;;;;;;;15.60;12.55;;;32.70;99.90;;;;;;5072408;28;20025;-89
2023/02/15 11:05:21;;;;;;;14.02;12.73;;;32.00;99.90;;;;;;5072271;28;20397;-89
2023/02/15 11:07:48;;;;;;;13.18;11.82;;;29.50;99.90;;;;;;5072717;28;20039;-90
2023/02/15 11:10:35;;;;;;;9.52;8.63;;;29.90;99.90;;;;;;5072554;28;20031;-89
2023/02/15 11:13:14;;;;;;;10.48;8.23;;;28.50;99.90;;;;;;5072304;28;20060;-89
2023/02/15 11:15:49;;;;;;;8.77;7.63;;;30.00;99.90;;;;;;5072510;28;20081;-89
2023/02/15 11:18:29;;;;;;;8.65;7.47;;;30.30;99.90;;;;;;5070968;28;20020;-89
2023/02/15 11:21:13;;;;;;;8.75;7.75;;;31.40;99.90;;;;;;5072360;28;20268;-89
2023/02/15 11:23:44;;;;;;;8.90;8.00;;;29.60;99.90;;;;;;5071115;28;20021;-89
2023/02/15 11:26:33;;;;;;;8.38;7.50;;;29.50;99.90;;;;;;5072291;28;20062;-89
2023/02/15 11:29:08;;;;;;;8.80;7.32;;;31.00;99.90;;;;;;5072448;28;20059;-89
2023/02/15 11:31:46;;;;;;;8.57;7.78;;;31.10;99.90;;;;;;5071995;28;20040;-89
2023/02/15 11:34:42;;;;;;;8.77;7.97;;;31.40;99.90;;;;;;5072244;28;20032;-89
2023/02/15 11:37:13;;;;;;;8.70;7.43;;;31.60;99.90;;;;;;5069668;28;20058;-90
2023/02/15 11:39:40;;;;;;;8.50;7.45;;;32.10;99.90;;;;;;5072122;28;20423;-90
2023/02/15 11:42:16;;;;;;;8.43;7.35;;;30.20;99.90;;;;;;5072080;28;20044;-89
2023/02/15 11:45:04;;;;;;;9.00;7.75;;;30.90;99.90;;;;;;5072413;28;20040;-89
2023/02/15 11:47:29;;;;;;;10.93;8.85;;;31.40;99.90;;;;;;5070630;28;20024;-89
2023/02/15 11:49:56;;;;;;;9.25;8.45;;;30.10;99.90;;;;;;5072088;28;20024;-89
2023/02/15 11:52:21;;;;;;;10.30;8.95;;;29.10;99.90;;;;;;5071873;28;20389;-89
2023/02/15 11:54:50;;;;;;;10.35;8.75;;;28.00;99.90;;;;;;5071877;28;20025;-89
2023/02/15 11:57:36;;;;;;;9.50;8.57;;;26.90;99.90;;;;;;5072185;28;20012;-89
2023/02/15 12:00:18;;;;;;;10.30;9.30;;;27.50;99.90;;;;;;5071157;28;20389;-89
2023/02/15 12:02:48;;;;;;;9.77;8.88;;;26.90;99.90;;;;;;5075697;28;20028;-89
2023/02/15 12:05:19;;;;;;;10.23;9.27;;;28.50;99.90;;;;;;5076437;28;20020;-88
2023/02/15 12:07:50;;;;;;;10.35;9.32;;;29.60;99.90;;;;;;5075688;28;20025;-89
2023/02/15 12:10:25;;;;;;;8.95;8.15;;;29.00;99.90;;;;;;5075292;28;20024;-89
2023/02/15 12:13:13;;;;;;;9.70;8.77;;;30.00;99.90;;;;;;5075390;28;20115;-89
2023/02/15 12:15:42;;;;;;;10.70;9.70;;;29.40;99.90;;;;;;5074970;28;20025;-89
2023/02/15 12:18:19;;;;;;;9.65;8.77;;;30.70;99.90;;;;;;5075501;28;20051;-89
2023/02/15 12:20:44;;;;;;;9.57;8.55;;;30.60;99.90;;;;;;5075299;28;20032;-89
2023/02/15 12:23:15;;;;;;;12.23;9.48;;;28.60;99.90;;;;;;5074144;28;20028;-90
2023/02/15 12:25:51;;;;;;;10.13;8.93;;;27.90;99.90;;;;;;5075286;28;20508;-89
2023/02/15 12:28:35;;;;;;;11.23;9.50;;;27.80;99.90;;;;;;5075141;28;20017;-89
2023/02/15 12:31:06;;;;;;;10.00;9.05;;;27.30;99.90;;;;;;5074647;28;20032;-89
2023/02/15 12:33:40;;;;;;;10.20;9.10;;;26.30;99.90;;;;;;5054991;28;20044;-89
2023/02/15 12:36:27;;;;;;;11.07;9.13;;;26.50;99.90;;;;;;5054963;28;20029;-89
2023/02/15 12:39:29;;;;;;;9.52;8.52;;;25.70;99.90;;;;;;5054887;28;20032;-88
2023/02/15 12:41:55;;;;;;;8.77;7.88;;;26.70;99.90;;;;;;5012789;28;20076;-89
2023/02/15 12:44:25;;;;;;;8.40;7.60;;;27.40;99.90;;;;;;4996133;28;20042;-89
2023/02/15 12:47:18;;;;;;;8.18;7.47;;;26.50;99.90;;;;;;5013123;28;20052;-89
2023/02/15 12:50:03;;;;;;;7.60;6.85;;;24.30;99.90;;;;;;5012914;28;20028;-89
2023/02/15 12:52:29;;;;;;;7.93;6.97;;;24.20;99.90;;;;;;5012780;28;20120;-88
2023/02/15 12:54:54;;;;;;;16.17;7.18;;;24.50;99.90;;;;;;5002699;28;20022;-89
2023/02/15 12:57:27;;;;;;;6.90;6.20;;;26.20;99.90;;;;;;5032693;28;20036;-89
2023/02/15 12:59:56;;;;;;;7.65;6.95;;;27.00;99.90;;;;;;5032278;28;20037;-89
2023/02/15 13:02:28;;;;;;;7.47;6.25;;;27.00;99.90;;;;;;5032722;28;20026;-89
2023/02/15 13:04:56;;;;;;;7.05;6.43;;;27.20;99.90;;;;;;5032311;28;20065;-89
2023/02/15 13:07:24;;;;;;;8.20;6.38;;;27.70;99.90;;;;;;5032440;28;20053;-89
2023/02/15 13:09:50;;;;;;;6.97;6.28;;;29.50;99.90;;;;;;5033055;28;20049;-90
2023/02/15 13:12:30;;;;;;;6.75;5.63;;;28.00;99.90;;;;;;5032762;28;20041;-89
2023/02/15 13:14:56;;;;;;;6.15;5.55;;;27.20;99.90;;;;;;5032729;28;20032;-90
2023/02/15 13:17:29;;;;;;;6.68;5.40;;;24.80;99.90;;;;;;5052566;28;20115;-89
2023/02/15 13:19:58;;;;;;;6.43;5.63;;;23.70;99.90;;;;;;5074204;28;20064;-89
2023/02/15 13:22:41;;;;;;;6.57;5.63;;;23.50;99.90;;;;;;5074253;28;20466;-89